Izumo Princess — SXMB — position and weather

sailwx.info

Track history (hours):
 
Tides and Currents Weather Stations Pressure Air Temp Water Temp Dewpoint Dewpoint Depression Visibility Wind Speed Wind Dir Waves Ship Positions

Izumo Princess

Last reported at 2015-Mar-04 05:34 UTC. Time now 2015-Mar-04 07:01 UTC.
Position N 36°39' E 013°38'.

Length 229 m; draft 12.1 m.

Type: Tanker. MMSI: 240611000.

Date/timePositionNaut miles runAvg speedWind from/ knotsBaromVisibWave heightAir tempDewpointWater temp
2015-Mar-04 05:34N 36°39' E 013°38'1110.8
2015-Mar-04 04:33N 36°42' E 013°25'1111.0
2015-Mar-04 03:33N 36°45' E 013°11'1111.2
2015-Mar-04 02:34N 36°48' E 012°58'1111.1
2015-Mar-04 01:33N 36°50' E 012°44'1111.2
2015-Mar-04 00:34N 36°54' E 012°31'1111.4
2015-Mar-03 23:33N 36°57' E 012°17'1111.0
2015-Mar-03 22:34N 37°00' E 012°04'1110.9
2015-Mar-03 21:34N 37°03' E 011°51'1110.9
2015-Mar-03 20:32N 37°09' E 011°39'1210.9
2015-Mar-03 19:27N 37°15' E 011°26'1110.9
2015-Mar-03 18:24N 37°20' E 011°14'910.4
2015-Mar-03 17:31N 37°25' E 011°04'1111.1
2015-Mar-03 16:32N 37°28' E 010°50'1611.3
2015-Mar-03 15:07N 37°31' E 010°31'6210.6
2015-Mar-03 09:16N 37°36' E 009°13'2 2.6
2015-Mar-03 08:33N 37°37' E 009°10'1111.2
2015-Mar-03 07:33N 37°37' E 008°56'  
Track history (hours):
 
Tides and Currents Weather Stations Pressure Air Temp Water Temp Dewpoint Dewpoint Depression Visibility Wind Speed Wind Dir Waves Ship Positions

Izumo Princess

Last reported at 2015-Mar-04 05:34 UTC. Time now 2015-Mar-04 07:01 UTC.
Position N 36°39' E 013°38'.

Length 229 m; draft 12.1 m.

Type: Tanker. MMSI: 240611000.

Date/timePositionNaut miles runAvg speedWind from/ knotsBaromVisibWave heightAir tempDewpointWater temp
2015-Mar-04 05:34N 36°39' E 013°38'1110.8
2015-Mar-04 04:33N 36°42' E 013°25'1111.0
2015-Mar-04 03:33N 36°45' E 013°11'1111.2
2015-Mar-04 02:34N 36°48' E 012°58'1111.1
2015-Mar-04 01:33N 36°50' E 012°44'1111.2
2015-Mar-04 00:34N 36°54' E 012°31'1111.4
2015-Mar-03 23:33N 36°57' E 012°17'1111.0
2015-Mar-03 22:34N 37°00' E 012°04'1110.9
2015-Mar-03 21:34N 37°03' E 011°51'1110.9
2015-Mar-03 20:32N 37°09' E 011°39'1210.9
2015-Mar-03 19:27N 37°15' E 011°26'1110.9
2015-Mar-03 18:24N 37°20' E 011°14'910.4
2015-Mar-03 17:31N 37°25' E 011°04'1111.1
2015-Mar-03 16:32N 37°28' E 010°50'1611.3
2015-Mar-03 15:07N 37°31' E 010°31'6210.6
2015-Mar-03 09:16N 37°36' E 009°13'2 2.6
2015-Mar-03 08:33N 37°37' E 009°10'1111.2
2015-Mar-03 07:33N 37°37' E 008°56'  

Dump ship's entire track history